sensor_id;sensor_type;location;lat;lon;timestamp;P1;durP1;ratioP1;P2;durP2;ratioP2
28960;SDS011;16068;42.896;20.868;2023-06-10T00:02:29;4.40;;;3.20;;
28960;SDS011;16068;42.896;20.868;2023-06-10T00:05:15;4.45;;;3.17;;
28960;SDS011;16068;42.896;20.868;2023-06-10T00:08:01;4.25;;;3.30;;
28960;SDS011;16068;42.896;20.868;2023-06-10T00:10:53;6.10;;;3.30;;
28960;SDS011;16068;42.896;20.868;2023-06-10T00:13:38;5.13;;;3.33;;
28960;SDS011;16068;42.896;20.868;2023-06-10T00:16:25;4.65;;;3.42;;
28960;SDS011;16068;42.896;20.868;2023-06-10T00:19:11;5.70;;;3.67;;
28960;SDS011;16068;42.896;20.868;2023-06-10T00:21:59;5.85;;;3.58;;
28960;SDS011;16068;42.896;20.868;2023-06-10T00:24:45;6.20;;;3.90;;
28960;SDS011;16068;42.896;20.868;2023-06-10T00:27:32;5.78;;;3.67;;
28960;SDS011;16068;42.896;20.868;2023-06-10T00:30:20;8.77;;;3.47;;
28960;SDS011;16068;42.896;20.868;2023-06-10T00:33:07;3.65;;;3.00;;
28960;SDS011;16068;42.896;20.868;2023-06-10T00:35:52;5.20;;;3.40;;
28960;SDS011;16068;42.896;20.868;2023-06-10T00:38:39;5.28;;;2.83;;
28960;SDS011;16068;42.896;20.868;2023-06-10T00:41:27;4.80;;;3.33;;
28960;SDS011;16068;42.896;20.868;2023-06-10T00:44:13;6.38;;;3.75;;
28960;SDS011;16068;42.896;20.868;2023-06-10T00:47:00;4.78;;;3.10;;
28960;SDS011;16068;42.896;20.868;2023-06-10T00:49:47;4.00;;;3.03;;
28960;SDS011;16068;42.896;20.868;2023-06-10T00:52:33;5.20;;;3.00;;
28960;SDS011;16068;42.896;20.868;2023-06-10T00:55:21;4.13;;;3.08;;
28960;SDS011;16068;42.896;20.868;2023-06-10T00:58:07;7.50;;;4.28;;
28960;SDS011;16068;42.896;20.868;2023-06-10T01:00:53;6.35;;;3.45;;
28960;SDS011;16068;42.896;20.868;2023-06-10T01:03:39;4.00;;;3.20;;
28960;SDS011;16068;42.896;20.868;2023-06-10T01:06:44;8.02;;;3.80;;
28960;SDS011;16068;42.896;20.868;2023-06-10T01:13:02;6.65;;;3.38;;
28960;SDS011;16068;42.896;20.868;2023-06-10T01:15:49;6.75;;;3.92;;
28960;SDS011;16068;42.896;20.868;2023-06-10T01:18:35;7.25;;;3.42;;
28960;SDS011;16068;42.896;20.868;2023-06-10T01:21:22;11.63;;;3.75;;
28960;SDS011;16068;42.896;20.868;2023-06-10T01:24:12;4.53;;;3.47;;
28960;SDS011;16068;42.896;20.868;2023-06-10T01:27:00;4.13;;;3.10;;
28960;SDS011;16068;42.896;20.868;2023-06-10T01:29:54;5.90;;;3.20;;
28960;SDS011;16068;42.896;20.868;2023-06-10T01:32:51;4.93;;;3.50;;
28960;SDS011;16068;42.896;20.868;2023-06-10T01:35:37;4.90;;;3.47;;
28960;SDS011;16068;42.896;20.868;2023-06-10T01:38:26;5.97;;;3.30;;
28960;SDS011;16068;42.896;20.868;2023-06-10T01:41:14;9.57;;;3.47;;
28960;SDS011;16068;42.896;20.868;2023-06-10T01:44:02;5.13;;;3.25;;
28960;SDS011;16068;42.896;20.868;2023-06-10T01:46:48;4.97;;;3.58;;
28960;SDS011;16068;42.896;20.868;2023-06-10T01:49:34;5.25;;;3.63;;
28960;SDS011;16068;42.896;20.868;2023-06-10T01:52:20;4.80;;;3.20;;
28960;SDS011;16068;42.896;20.868;2023-06-10T01:55:06;6.13;;;3.55;;
28960;SDS011;16068;42.896;20.868;2023-06-10T01:57:53;5.68;;;3.40;;
28960;SDS011;16068;42.896;20.868;2023-06-10T02:00:39;6.60;;;3.80;;
28960;SDS011;16068;42.896;20.868;2023-06-10T02:03:26;4.40;;;3.50;;
28960;SDS011;16068;42.896;20.868;2023-06-10T02:06:12;6.60;;;3.38;;
28960;SDS011;16068;42.896;20.868;2023-06-10T02:08:59;8.48;;;3.50;;
28960;SDS011;16068;42.896;20.868;2023-06-10T02:11:47;6.30;;;4.10;;
28960;SDS011;16068;42.896;20.868;2023-06-10T02:14:33;4.05;;;3.30;;
28960;SDS011;16068;42.896;20.868;2023-06-10T02:17:19;5.72;;;3.35;;
28960;SDS011;16068;42.896;20.868;2023-06-10T02:20:05;5.55;;;3.50;;
28960;SDS011;16068;42.896;20.868;2023-06-10T02:22:52;8.07;;;3.97;;
28960;SDS011;16068;42.896;20.868;2023-06-10T02:25:38;4.88;;;3.45;;
28960;SDS011;16068;42.896;20.868;2023-06-10T02:28:28;5.75;;;3.40;;
28960;SDS011;16068;42.896;20.868;2023-06-10T02:31:17;7.35;;;3.78;;
28960;SDS011;16068;42.896;20.868;2023-06-10T02:34:04;7.40;;;3.67;;
28960;SDS011;16068;42.896;20.868;2023-06-10T02:36:50;8.18;;;3.65;;
28960;SDS011;16068;42.896;20.868;2023-06-10T02:39:39;5.97;;;3.85;;
28960;SDS011;16068;42.896;20.868;2023-06-10T02:42:28;7.53;;;4.43;;
28960;SDS011;16068;42.896;20.868;2023-06-10T02:45:15;6.45;;;4.25;;
28960;SDS011;16068;42.896;20.868;2023-06-10T02:48:02;7.05;;;4.10;;
28960;SDS011;16068;42.896;20.868;2023-06-10T02:50:50;8.45;;;4.25;;
28960;SDS011;16068;42.896;20.868;2023-06-10T02:53:44;7.22;;;4.00;;
28960;SDS011;16068;42.896;20.868;2023-06-10T02:56:35;5.95;;;4.10;;
28960;SDS011;16068;42.896;20.868;2023-06-10T02:59:25;4.10;;;3.70;;
28960;SDS011;16068;42.896;20.868;2023-06-10T03:02:12;8.27;;;3.80;;
28960;SDS011;16068;42.896;20.868;2023-06-10T03:05:04;8.60;;;4.40;;
28960;SDS011;16068;42.896;20.868;2023-06-10T03:07:52;6.85;;;4.15;;
28960;SDS011;16068;42.896;20.868;2023-06-10T03:10:39;8.13;;;4.60;;
28960;SDS011;16068;42.896;20.868;2023-06-10T03:13:26;8.70;;;4.10;;
28960;SDS011;16068;42.896;20.868;2023-06-10T03:16:12;9.15;;;3.72;;
28960;SDS011;16068;42.896;20.868;2023-06-10T03:18:59;10.75;;;3.80;;
28960;SDS011;16068;42.896;20.868;2023-06-10T03:21:45;6.50;;;3.58;;
28960;SDS011;16068;42.896;20.868;2023-06-10T03:24:33;6.93;;;4.10;;
28960;SDS011;16068;42.896;20.868;2023-06-10T03:27:19;10.05;;;4.43;;
28960;SDS011;16068;42.896;20.868;2023-06-10T03:30:09;4.82;;;3.58;;
28960;SDS011;16068;42.896;20.868;2023-06-10T03:32:58;7.00;;;3.65;;
28960;SDS011;16068;42.896;20.868;2023-06-10T03:35:46;5.80;;;3.97;;
28960;SDS011;16068;42.896;20.868;2023-06-10T03:38:32;7.95;;;3.90;;
28960;SDS011;16068;42.896;20.868;2023-06-10T03:41:18;8.90;;;4.00;;
28960;SDS011;16068;42.896;20.868;2023-06-10T03:44:04;7.68;;;3.65;;
28960;SDS011;16068;42.896;20.868;2023-06-10T03:46:50;6.25;;;4.05;;
28960;SDS011;16068;42.896;20.868;2023-06-10T03:49:36;6.97;;;4.18;;
28960;SDS011;16068;42.896;20.868;2023-06-10T03:52:22;10.05;;;4.18;;
28960;SDS011;16068;42.896;20.868;2023-06-10T03:55:09;9.75;;;3.97;;
28960;SDS011;16068;42.896;20.868;2023-06-10T03:58:01;5.28;;;3.60;;
28960;SDS011;16068;42.896;20.868;2023-06-10T04:00:47;5.60;;;3.60;;
28960;SDS011;16068;42.896;20.868;2023-06-10T04:03:34;5.28;;;4.00;;
28960;SDS011;16068;42.896;20.868;2023-06-10T04:06:20;6.57;;;3.58;;
28960;SDS011;16068;42.896;20.868;2023-06-10T04:09:08;7.55;;;3.50;;
28960;SDS011;16068;42.896;20.868;2023-06-10T04:11:55;7.03;;;3.53;;
28960;SDS011;16068;42.896;20.868;2023-06-10T04:14:41;5.88;;;3.78;;
28960;SDS011;16068;42.896;20.868;2023-06-10T04:17:29;7.47;;;3.65;;
28960;SDS011;16068;42.896;20.868;2023-06-10T04:20:16;8.43;;;3.40;;
28960;SDS011;16068;42.896;20.868;2023-06-10T04:23:05;10.18;;;3.65;;
28960;SDS011;16068;42.896;20.868;2023-06-10T04:25:52;5.43;;;3.72;;
28960;SDS011;16068;42.896;20.868;2023-06-10T04:28:39;7.85;;;5.10;;
28960;SDS011;16068;42.896;20.868;2023-06-10T04:31:25;5.07;;;3.90;;
28960;SDS011;16068;42.896;20.868;2023-06-10T04:34:12;9.57;;;3.55;;
28960;SDS011;16068;42.896;20.868;2023-06-10T04:36:58;5.47;;;3.55;;
28960;SDS011;16068;42.896;20.868;2023-06-10T04:39:44;10.40;;;3.67;;
28960;SDS011;16068;42.896;20.868;2023-06-10T04:42:31;8.48;;;3.83;;
28960;SDS011;16068;42.896;20.868;2023-06-10T04:45:18;3.92;;;3.42;;
28960;SDS011;16068;42.896;20.868;2023-06-10T04:48:04;7.85;;;4.15;;
28960;SDS011;16068;42.896;20.868;2023-06-10T04:50:51;6.63;;;3.90;;
28960;SDS011;16068;42.896;20.868;2023-06-10T04:53:37;9.45;;;4.22;;
28960;SDS011;16068;42.896;20.868;2023-06-10T04:56:23;11.25;;;3.92;;
28960;SDS011;16068;42.896;20.868;2023-06-10T04:59:10;12.75;;;3.55;;
28960;SDS011;16068;42.896;20.868;2023-06-10T05:01:56;4.25;;;3.50;;
28960;SDS011;16068;42.896;20.868;2023-06-10T05:04:43;10.90;;;4.60;;
28960;SDS011;16068;42.896;20.868;2023-06-10T05:07:29;11.80;;;4.63;;
28960;SDS011;16068;42.896;20.868;2023-06-10T05:10:15;7.85;;;4.05;;
28960;SDS011;16068;42.896;20.868;2023-06-10T05:13:01;12.35;;;4.45;;
28960;SDS011;16068;42.896;20.868;2023-06-10T05:15:48;12.45;;;4.18;;
28960;SDS011;16068;42.896;20.868;2023-06-10T05:18:34;11.75;;;3.90;;
28960;SDS011;16068;42.896;20.868;2023-06-10T05:21:20;5.45;;;3.60;;
28960;SDS011;16068;42.896;20.868;2023-06-10T05:24:07;7.15;;;3.85;;
28960;SDS011;16068;42.896;20.868;2023-06-10T05:26:53;5.95;;;3.60;;
28960;SDS011;16068;42.896;20.868;2023-06-10T05:29:39;8.45;;;3.65;;
28960;SDS011;16068;42.896;20.868;2023-06-10T05:32:25;5.60;;;3.40;;
28960;SDS011;16068;42.896;20.868;2023-06-10T05:35:11;7.22;;;3.85;;
28960;SDS011;16068;42.896;20.868;2023-06-10T05:37:57;6.65;;;3.53;;
28960;SDS011;16068;42.896;20.868;2023-06-10T05:40:47;7.78;;;3.78;;
28960;SDS011;16068;42.896;20.868;2023-06-10T05:43:33;5.28;;;3.25;;
28960;SDS011;16068;42.896;20.868;2023-06-10T05:46:19;7.03;;;3.90;;
28960;SDS011;16068;42.896;20.868;2023-06-10T05:49:05;4.15;;;3.70;;
28960;SDS011;16068;42.896;20.868;2023-06-10T05:51:51;5.57;;;3.50;;
28960;SDS011;16068;42.896;20.868;2023-06-10T05:54:38;8.45;;;3.75;;
28960;SDS011;16068;42.896;20.868;2023-06-10T05:57:24;5.95;;;3.72;;
28960;SDS011;16068;42.896;20.868;2023-06-10T06:00:10;7.22;;;4.00;;
28960;SDS011;16068;42.896;20.868;2023-06-10T06:02:56;5.85;;;3.97;;
28960;SDS011;16068;42.896;20.868;2023-06-10T06:05:44;10.40;;;3.90;;
28960;SDS011;16068;42.896;20.868;2023-06-10T06:08:31;5.05;;;3.72;;
28960;SDS011;16068;42.896;20.868;2023-06-10T06:11:17;8.98;;;3.97;;
28960;SDS011;16068;42.896;20.868;2023-06-10T06:14:03;5.30;;;3.35;;
28960;SDS011;16068;42.896;20.868;2023-06-10T06:16:49;10.32;;;4.10;;
28960;SDS011;16068;42.896;20.868;2023-06-10T06:19:35;7.47;;;3.42;;
28960;SDS011;16068;42.896;20.868;2023-06-10T06:22:21;6.68;;;3.80;;
28960;SDS011;16068;42.896;20.868;2023-06-10T06:25:07;3.88;;;3.10;;
28960;SDS011;16068;42.896;20.868;2023-06-10T06:27:54;4.35;;;3.50;;
28960;SDS011;16068;42.896;20.868;2023-06-10T06:30:40;6.18;;;3.55;;
28960;SDS011;16068;42.896;20.868;2023-06-10T06:33:27;6.57;;;3.15;;
28960;SDS011;16068;42.896;20.868;2023-06-10T06:36:12;8.10;;;3.45;;
28960;SDS011;16068;42.896;20.868;2023-06-10T06:38:59;6.43;;;3.30;;
28960;SDS011;16068;42.896;20.868;2023-06-10T06:41:46;6.13;;;3.53;;
28960;SDS011;16068;42.896;20.868;2023-06-10T06:44:32;10.45;;;3.47;;
28960;SDS011;16068;42.896;20.868;2023-06-10T06:47:18;4.65;;;3.53;;
28960;SDS011;16068;42.896;20.868;2023-06-10T06:50:05;5.22;;;3.50;;
28960;SDS011;16068;42.896;20.868;2023-06-10T06:52:52;7.72;;;3.83;;
28960;SDS011;16068;42.896;20.868;2023-06-10T06:55:38;8.57;;;3.85;;
28960;SDS011;16068;42.896;20.868;2023-06-10T06:58:24;6.00;;;3.28;;
28960;SDS011;16068;42.896;20.868;2023-06-10T07:01:10;8.88;;;3.90;;
28960;SDS011;16068;42.896;20.868;2023-06-10T07:03:57;6.63;;;3.90;;
28960;SDS011;16068;42.896;20.868;2023-06-10T07:06:42;6.95;;;3.92;;
28960;SDS011;16068;42.896;20.868;2023-06-10T07:09:29;6.13;;;3.50;;
28960;SDS011;16068;42.896;20.868;2023-06-10T07:12:15;12.18;;;3.97;;
28960;SDS011;16068;42.896;20.868;2023-06-10T07:15:01;4.45;;;2.88;;
28960;SDS011;16068;42.896;20.868;2023-06-10T07:17:48;16.92;;;4.47;;
28960;SDS011;16068;42.896;20.868;2023-06-10T07:20:35;20.52;;;6.20;;
28960;SDS011;16068;42.896;20.868;2023-06-10T07:23:21;27.55;;;6.18;;
28960;SDS011;16068;42.896;20.868;2023-06-10T07:26:07;22.85;;;5.95;;
28960;SDS011;16068;42.896;20.868;2023-06-10T07:28:56;18.17;;;5.30;;
28960;SDS011;16068;42.896;20.868;2023-06-10T07:31:42;10.98;;;4.18;;
28960;SDS011;16068;42.896;20.868;2023-06-10T07:34:29;19.20;;;12.25;;
28960;SDS011;16068;42.896;20.868;2023-06-10T07:37:18;16.50;;;11.57;;
28960;SDS011;16068;42.896;20.868;2023-06-10T07:40:05;28.67;;;15.50;;
28960;SDS011;16068;42.896;20.868;2023-06-10T07:42:52;39.78;;;28.88;;
28960;SDS011;16068;42.896;20.868;2023-06-10T07:45:41;34.40;;;24.70;;
28960;SDS011;16068;42.896;20.868;2023-06-10T07:48:28;15.73;;;10.88;;
28960;SDS011;16068;42.896;20.868;2023-06-10T07:51:15;33.50;;;21.75;;
28960;SDS011;16068;42.896;20.868;2023-06-10T07:54:01;9.18;;;6.35;;
28960;SDS011;16068;42.896;20.868;2023-06-10T07:56:48;18.02;;;11.90;;
28960;SDS011;16068;42.896;20.868;2023-06-10T07:59:34;9.63;;;6.55;;
28960;SDS011;16068;42.896;20.868;2023-06-10T08:02:21;8.15;;;5.10;;
28960;SDS011;16068;42.896;20.868;2023-06-10T08:05:10;7.57;;;4.20;;
28960;SDS011;16068;42.896;20.868;2023-06-10T08:07:57;9.65;;;5.72;;
28960;SDS011;16068;42.896;20.868;2023-06-10T08:10:47;7.80;;;3.80;;
28960;SDS011;16068;42.896;20.868;2023-06-10T08:13:35;13.00;;;4.15;;
28960;SDS011;16068;42.896;20.868;2023-06-10T08:16:21;11.07;;;4.68;;
28960;SDS011;16068;42.896;20.868;2023-06-10T08:19:07;14.80;;;5.25;;
28960;SDS011;16068;42.896;20.868;2023-06-10T08:21:54;11.10;;;4.65;;
28960;SDS011;16068;42.896;20.868;2023-06-10T08:24:40;9.55;;;4.85;;
28960;SDS011;16068;42.896;20.868;2023-06-10T08:27:26;9.73;;;4.20;;
28960;SDS011;16068;42.896;20.868;2023-06-10T08:30:12;8.13;;;4.32;;
28960;SDS011;16068;42.896;20.868;2023-06-10T08:32:59;8.73;;;5.13;;
28960;SDS011;16068;42.896;20.868;2023-06-10T08:35:45;11.57;;;4.78;;
28960;SDS011;16068;42.896;20.868;2023-06-10T08:38:31;6.43;;;3.65;;
28960;SDS011;16068;42.896;20.868;2023-06-10T08:41:21;7.97;;;3.70;;
28960;SDS011;16068;42.896;20.868;2023-06-10T08:44:10;15.20;;;4.55;;
28960;SDS011;16068;42.896;20.868;2023-06-10T08:47:06;8.60;;;3.60;;
28960;SDS011;16068;42.896;20.868;2023-06-10T08:50:05;4.97;;;2.97;;
28960;SDS011;16068;42.896;20.868;2023-06-10T08:52:54;6.40;;;3.47;;
28960;SDS011;16068;42.896;20.868;2023-06-10T08:55:43;5.15;;;3.22;;
28960;SDS011;16068;42.896;20.868;2023-06-10T08:58:33;9.60;;;4.07;;
28960;SDS011;16068;42.896;20.868;2023-06-10T09:01:29;15.55;;;7.10;;
28960;SDS011;16068;42.896;20.868;2023-06-10T09:04:15;15.95;;;5.07;;
28960;SDS011;16068;42.896;20.868;2023-06-10T09:07:04;11.95;;;7.75;;
28960;SDS011;16068;42.896;20.868;2023-06-10T09:09:50;14.27;;;7.15;;
28960;SDS011;16068;42.896;20.868;2023-06-10T09:12:39;18.35;;;6.32;;
28960;SDS011;16068;42.896;20.868;2023-06-10T09:15:25;10.43;;;6.43;;
28960;SDS011;16068;42.896;20.868;2023-06-10T09:18:11;8.45;;;5.43;;
28960;SDS011;16068;42.896;20.868;2023-06-10T09:20:57;14.77;;;6.70;;
28960;SDS011;16068;42.896;20.868;2023-06-10T09:23:43;7.88;;;5.03;;
28960;SDS011;16068;42.896;20.868;2023-06-10T09:26:30;5.50;;;3.80;;
28960;SDS011;16068;42.896;20.868;2023-06-10T09:29:19;5.45;;;3.55;;
28960;SDS011;16068;42.896;20.868;2023-06-10T09:32:06;6.35;;;3.42;;
28960;SDS011;16068;42.896;20.868;2023-06-10T09:34:55;16.17;;;7.65;;
28960;SDS011;16068;42.896;20.868;2023-06-10T09:37:41;9.27;;;5.07;;
28960;SDS011;16068;42.896;20.868;2023-06-10T09:40:30;10.52;;;4.95;;
28960;SDS011;16068;42.896;20.868;2023-06-10T09:43:16;5.00;;;3.55;;
28960;SDS011;16068;42.896;20.868;2023-06-10T09:46:02;5.03;;;3.80;;
28960;SDS011;16068;42.896;20.868;2023-06-10T09:48:48;81.20;;;37.92;;
28960;SDS011;16068;42.896;20.868;2023-06-10T09:51:34;152.35;;;63.92;;
28960;SDS011;16068;42.896;20.868;2023-06-10T09:54:21;125.80;;;50.08;;
28960;SDS011;16068;42.896;20.868;2023-06-10T09:57:07;35.53;;;16.33;;
28960;SDS011;16068;42.896;20.868;2023-06-10T09:59:56;19.40;;;8.80;;
28960;SDS011;16068;42.896;20.868;2023-06-10T10:02:47;20.58;;;7.38;;
28960;SDS011;16068;42.896;20.868;2023-06-10T10:05:34;13.52;;;5.70;;
28960;SDS011;16068;42.896;20.868;2023-06-10T10:08:21;15.13;;;7.40;;
28960;SDS011;16068;42.896;20.868;2023-06-10T10:11:08;51.28;;;36.35;;
28960;SDS011;16068;42.896;20.868;2023-06-10T10:13:55;13.23;;;7.25;;
28960;SDS011;16068;42.896;20.868;2023-06-10T10:16:41;14.02;;;6.55;;
28960;SDS011;16068;42.896;20.868;2023-06-10T10:19:28;12.90;;;6.15;;
28960;SDS011;16068;42.896;20.868;2023-06-10T10:22:26;7.03;;;5.25;;
28960;SDS011;16068;42.896;20.868;2023-06-10T10:25:16;7.50;;;4.32;;
28960;SDS011;16068;42.896;20.868;2023-06-10T10:28:08;8.90;;;4.80;;
28960;SDS011;16068;42.896;20.868;2023-06-10T10:30:59;7.07;;;4.97;;
28960;SDS011;16068;42.896;20.868;2023-06-10T10:36:43;9.02;;;4.38;;
28960;SDS011;16068;42.896;20.868;2023-06-10T10:39:30;8.68;;;4.95;;
28960;SDS011;16068;42.896;20.868;2023-06-10T10:42:16;14.57;;;4.85;;
28960;SDS011;16068;42.896;20.868;2023-06-10T10:45:03;8.35;;;4.28;;
28960;SDS011;16068;42.896;20.868;2023-06-10T10:47:54;11.82;;;4.40;;
28960;SDS011;16068;42.896;20.868;2023-06-10T10:50:43;6.20;;;4.07;;
28960;SDS011;16068;42.896;20.868;2023-06-10T10:54:11;19.50;;;6.32;;
28960;SDS011;16068;42.896;20.868;2023-06-10T10:59:55;12.40;;;4.75;;
28960;SDS011;16068;42.896;20.868;2023-06-10T11:02:43;13.18;;;4.82;;
28960;SDS011;16068;42.896;20.868;2023-06-10T11:05:31;10.20;;;5.07;;
28960;SDS011;16068;42.896;20.868;2023-06-10T11:11:25;9.07;;;4.88;;
28960;SDS011;16068;42.896;20.868;2023-06-10T11:14:13;11.68;;;5.95;;
28960;SDS011;16068;42.896;20.868;2023-06-10T11:17:20;7.10;;;4.28;;
28960;SDS011;16068;42.896;20.868;2023-06-10T11:20:07;12.23;;;4.05;;
28960;SDS011;16068;42.896;20.868;2023-06-10T11:23:00;9.38;;;3.80;;
28960;SDS011;16068;42.896;20.868;2023-06-10T11:25:50;5.32;;;4.00;;
28960;SDS011;16068;42.896;20.868;2023-06-10T11:28:37;7.63;;;3.25;;
28960;SDS011;16068;42.896;20.868;2023-06-10T11:31:28;13.20;;;4.38;;
28960;SDS011;16068;42.896;20.868;2023-06-10T11:34:15;7.25;;;3.45;;
28960;SDS011;16068;42.896;20.868;2023-06-10T11:37:09;6.88;;;2.90;;
28960;SDS011;16068;42.896;20.868;2023-06-10T11:39:55;5.45;;;3.83;;
28960;SDS011;16068;42.896;20.868;2023-06-10T11:42:42;12.75;;;4.40;;
28960;SDS011;16068;42.896;20.868;2023-06-10T11:45:27;4.78;;;3.20;;
28960;SDS011;16068;42.896;20.868;2023-06-10T11:48:13;8.77;;;4.40;;
28960;SDS011;16068;42.896;20.868;2023-06-10T11:50:59;10.40;;;4.75;;
28960;SDS011;16068;42.896;20.868;2023-06-10T11:53:49;6.70;;;4.20;;
28960;SDS011;16068;42.896;20.868;2023-06-10T11:56:35;6.18;;;4.47;;
28960;SDS011;16068;42.896;20.868;2023-06-10T11:59:22;9.07;;;3.80;;
28960;SDS011;16068;42.896;20.868;2023-06-10T12:02:15;8.23;;;4.18;;
28960;SDS011;16068;42.896;20.868;2023-06-10T12:05:12;10.05;;;3.85;;
28960;SDS011;16068;42.896;20.868;2023-06-10T12:08:09;8.30;;;4.97;;
28960;SDS011;16068;42.896;20.868;2023-06-10T12:10:56;4.85;;;3.95;;
28960;SDS011;16068;42.896;20.868;2023-06-10T12:13:46;11.95;;;5.00;;
28960;SDS011;16068;42.896;20.868;2023-06-10T12:16:34;15.05;;;8.82;;
28960;SDS011;16068;42.896;20.868;2023-06-10T12:19:20;9.60;;;5.40;;
28960;SDS011;16068;42.896;20.868;2023-06-10T12:22:06;12.30;;;6.75;;
28960;SDS011;16068;42.896;20.868;2023-06-10T12:25:00;12.75;;;5.75;;
28960;SDS011;16068;42.896;20.868;2023-06-10T12:27:52;7.43;;;5.60;;
28960;SDS011;16068;42.896;20.868;2023-06-10T12:30:38;11.85;;;6.30;;
28960;SDS011;16068;42.896;20.868;2023-06-10T12:33:25;15.07;;;5.97;;
28960;SDS011;16068;42.896;20.868;2023-06-10T12:36:15;5.75;;;3.85;;
28960;SDS011;16068;42.896;20.868;2023-06-10T12:39:05;12.05;;;4.20;;
28960;SDS011;16068;42.896;20.868;2023-06-10T12:41:51;6.25;;;4.00;;
28960;SDS011;16068;42.896;20.868;2023-06-10T12:44:40;4.45;;;4.00;;
28960;SDS011;16068;42.896;20.868;2023-06-10T12:47:30;6.40;;;4.10;;
28960;SDS011;16068;42.896;20.868;2023-06-10T12:50:18;6.30;;;3.65;;
28960;SDS011;16068;42.896;20.868;2023-06-10T12:53:04;10.32;;;4.05;;
28960;SDS011;16068;42.896;20.868;2023-06-10T12:55:51;10.90;;;4.18;;
28960;SDS011;16068;42.896;20.868;2023-06-10T12:58:37;4.55;;;3.78;;
28960;SDS011;16068;42.896;20.868;2023-06-10T13:01:23;5.50;;;4.97;;
28960;SDS011;16068;42.896;20.868;2023-06-10T13:04:12;7.07;;;5.05;;
28960;SDS011;16068;42.896;20.868;2023-06-10T13:06:58;17.50;;;8.60;;
28960;SDS011;16068;42.896;20.868;2023-06-10T13:09:45;23.83;;;10.60;;
28960;SDS011;16068;42.896;20.868;2023-06-10T13:12:34;25.70;;;9.35;;
28960;SDS011;16068;42.896;20.868;2023-06-10T13:15:33;19.73;;;10.18;;
28960;SDS011;16068;42.896;20.868;2023-06-10T13:18:28;19.55;;;6.68;;
28960;SDS011;16068;42.896;20.868;2023-06-10T13:21:14;12.93;;;6.70;;
28960;SDS011;16068;42.896;20.868;2023-06-10T13:24:01;12.82;;;6.75;;
28960;SDS011;16068;42.896;20.868;2023-06-10T13:26:47;16.92;;;7.78;;
28960;SDS011;16068;42.896;20.868;2023-06-10T13:29:34;21.95;;;7.97;;
28960;SDS011;16068;42.896;20.868;2023-06-10T13:32:21;20.40;;;8.52;;
28960;SDS011;16068;42.896;20.868;2023-06-10T13:35:07;12.25;;;8.43;;
28960;SDS011;16068;42.896;20.868;2023-06-10T13:37:54;12.75;;;6.60;;
28960;SDS011;16068;42.896;20.868;2023-06-10T13:40:40;17.88;;;8.50;;
28960;SDS011;16068;42.896;20.868;2023-06-10T13:43:26;14.25;;;8.38;;
28960;SDS011;16068;42.896;20.868;2023-06-10T13:46:12;13.23;;;7.60;;
28960;SDS011;16068;42.896;20.868;2023-06-10T13:48:58;22.35;;;7.13;;
28960;SDS011;16068;42.896;20.868;2023-06-10T13:51:45;11.88;;;7.20;;
28960;SDS011;16068;42.896;20.868;2023-06-10T13:54:31;17.23;;;7.38;;
28960;SDS011;16068;42.896;20.868;2023-06-10T13:57:17;12.52;;;6.35;;
28960;SDS011;16068;42.896;20.868;2023-06-10T14:00:11;15.77;;;6.45;;
28960;SDS011;16068;42.896;20.868;2023-06-10T14:02:59;13.60;;;5.60;;
28960;SDS011;16068;42.896;20.868;2023-06-10T14:05:46;8.05;;;5.57;;
28960;SDS011;16068;42.896;20.868;2023-06-10T14:08:32;11.52;;;5.93;;
28960;SDS011;16068;42.896;20.868;2023-06-10T14:11:18;10.85;;;5.20;;
28960;SDS011;16068;42.896;20.868;2023-06-10T14:14:04;11.43;;;5.53;;
28960;SDS011;16068;42.896;20.868;2023-06-10T14:16:50;9.23;;;5.55;;
28960;SDS011;16068;42.896;20.868;2023-06-10T14:19:36;10.88;;;5.22;;
28960;SDS011;16068;42.896;20.868;2023-06-10T14:22:22;8.90;;;5.13;;
28960;SDS011;16068;42.896;20.868;2023-06-10T14:25:08;7.82;;;5.22;;
28960;SDS011;16068;42.896;20.868;2023-06-10T14:27:57;14.25;;;5.40;;
28960;SDS011;16068;42.896;20.868;2023-06-10T14:30:43;10.02;;;6.80;;
28960;SDS011;16068;42.896;20.868;2023-06-10T14:33:34;7.85;;;5.32;;
28960;SDS011;16068;42.896;20.868;2023-06-10T14:36:20;12.85;;;6.80;;
28960;SDS011;16068;42.896;20.868;2023-06-10T14:39:07;7.78;;;5.28;;
28960;SDS011;16068;42.896;20.868;2023-06-10T14:41:52;8.23;;;5.43;;
28960;SDS011;16068;42.896;20.868;2023-06-10T14:44:38;8.65;;;5.07;;
28960;SDS011;16068;42.896;20.868;2023-06-10T14:47:25;9.98;;;5.28;;
28960;SDS011;16068;42.896;20.868;2023-06-10T14:50:11;10.35;;;5.75;;
28960;SDS011;16068;42.896;20.868;2023-06-10T14:52:58;10.77;;;5.50;;
28960;SDS011;16068;42.896;20.868;2023-06-10T14:55:44;13.85;;;5.88;;
28960;SDS011;16068;42.896;20.868;2023-06-10T14:58:31;8.57;;;5.20;;
28960;SDS011;16068;42.896;20.868;2023-06-10T15:01:17;11.30;;;5.78;;
28960;SDS011;16068;42.896;20.868;2023-06-10T15:04:06;9.30;;;5.60;;
28960;SDS011;16068;42.896;20.868;2023-06-10T15:06:52;7.82;;;4.72;;
28960;SDS011;16068;42.896;20.868;2023-06-10T15:09:39;6.43;;;4.80;;
28960;SDS011;16068;42.896;20.868;2023-06-10T15:12:25;7.57;;;4.72;;
28960;SDS011;16068;42.896;20.868;2023-06-10T15:15:11;10.10;;;7.13;;
28960;SDS011;16068;42.896;20.868;2023-06-10T15:17:58;7.63;;;5.93;;
28960;SDS011;16068;42.896;20.868;2023-06-10T15:20:44;7.47;;;5.70;;
28960;SDS011;16068;42.896;20.868;2023-06-10T15:23:30;13.38;;;6.45;;
28960;SDS011;16068;42.896;20.868;2023-06-10T15:26:16;10.48;;;6.35;;
28960;SDS011;16068;42.896;20.868;2023-06-10T15:29:02;8.40;;;5.85;;
28960;SDS011;16068;42.896;20.868;2023-06-10T15:31:50;13.15;;;5.88;;
28960;SDS011;16068;42.896;20.868;2023-06-10T15:34:36;10.32;;;5.70;;
28960;SDS011;16068;42.896;20.868;2023-06-10T15:37:23;14.98;;;6.97;;
28960;SDS011;16068;42.896;20.868;2023-06-10T15:40:09;14.65;;;8.68;;
28960;SDS011;16068;42.896;20.868;2023-06-10T15:42:56;9.35;;;6.38;;
28960;SDS011;16068;42.896;20.868;2023-06-10T15:45:42;12.57;;;5.65;;
28960;SDS011;16068;42.896;20.868;2023-06-10T15:48:29;11.13;;;5.65;;
28960;SDS011;16068;42.896;20.868;2023-06-10T15:51:15;8.63;;;5.70;;
28960;SDS011;16068;42.896;20.868;2023-06-10T15:54:02;8.85;;;5.95;;
28960;SDS011;16068;42.896;20.868;2023-06-10T15:56:48;8.73;;;5.97;;
28960;SDS011;16068;42.896;20.868;2023-06-10T15:59:37;7.25;;;6.03;;
28960;SDS011;16068;42.896;20.868;2023-06-10T16:02:22;10.95;;;6.35;;
28960;SDS011;16068;42.896;20.868;2023-06-10T16:05:08;7.85;;;6.15;;
28960;SDS011;16068;42.896;20.868;2023-06-10T16:07:55;9.82;;;5.97;;
28960;SDS011;16068;42.896;20.868;2023-06-10T16:10:44;9.35;;;6.05;;
28960;SDS011;16068;42.896;20.868;2023-06-10T16:13:30;9.18;;;6.82;;
28960;SDS011;16068;42.896;20.868;2023-06-10T16:16:16;7.45;;;6.35;;
28960;SDS011;16068;42.896;20.868;2023-06-10T16:19:02;10.05;;;6.25;;
28960;SDS011;16068;42.896;20.868;2023-06-10T16:21:48;14.15;;;6.80;;
28960;SDS011;16068;42.896;20.868;2023-06-10T16:24:35;10.52;;;7.20;;
28960;SDS011;16068;42.896;20.868;2023-06-10T16:27:21;9.63;;;6.97;;
28960;SDS011;16068;42.896;20.868;2023-06-10T16:30:08;9.85;;;6.90;;
28960;SDS011;16068;42.896;20.868;2023-06-10T16:32:54;9.48;;;6.57;;
28960;SDS011;16068;42.896;20.868;2023-06-10T16:35:41;13.80;;;7.28;;
28960;SDS011;16068;42.896;20.868;2023-06-10T16:38:26;12.93;;;7.65;;
28960;SDS011;16068;42.896;20.868;2023-06-10T16:41:12;12.07;;;7.00;;